Terminal Aerodrome Forecast
Issued by NWS

Home | Current Version | Previous Version | Text Only | Print | Product List | Glossary On
Versions: 1 2 3 4 5 6 7 8 9 10 11
000
FTUS46 KSGX 141121
TAFCRQ
TAF
KCRQ 141121Z 1412/1512 VRB04KT P6SM SKC
     FM142100 28007KT P6SM SKC
     FM150000 VRB04KT P6SM SKC WS015/06025KT
     FM150600 VRB04KT P6SM SKC=

USA.gov is the U.S. government's official web portal to all federal, state and local government web resources and services.